Time;durP1;ratioP1;P1;durP2;ratioP2;P2;SDS_P1;SDS_P2;PMS_P1;PMS_P2;Temp;Humidity;BMP_temperature;BMP_pressure;BME280_temperature;BME280_humidity;BME280_pressure;Samples;Min_cycle;Max_cycle;Signal;HPM_P1;HPM_P2
2022/08/30 00:02:10;;;;;;;5.30;4.30;;;;;;;18.12;81.72;98986.04;105018;1273;77043;-24
2022/08/30 00:04:37;;;;;;;6.80;5.20;;;;;;;18.46;80.92;98982.81;104981;1271;75121;-24
2022/08/30 00:07:05;;;;;;;8.90;5.70;;;;;;;18.72;79.12;98983.95;104760;1274;63336;-24
2022/08/30 00:09:32;;;;;;;8.00;5.80;;;;;;;18.57;79.41;98981.23;104783;1274;63035;-24
2022/08/30 00:11:59;;;;;;;7.90;6.10;;;;;;;18.30;80.22;98983.27;105018;1271;75411;-24
2022/08/30 00:14:26;;;;;;;8.30;6.30;;;;;;;17.92;82.12;98986.89;105073;1271;77125;-24
2022/08/30 00:16:53;;;;;;;5.90;4.20;;;;;;;17.62;84.18;98987.61;105015;1274;74461;-24
2022/08/30 00:19:20;;;;;;;6.90;5.10;;;;;;;17.90;83.50;98983.45;105023;1274;62746;-24
2022/08/30 00:21:47;;;;;;;8.00;5.50;;;;;;;18.20;81.87;98981.09;105091;1274;61691;-22
2022/08/30 00:24:14;;;;;;;6.90;6.10;;;;;;;18.04;82.70;98979.99;105117;1272;76586;-23
2022/08/30 00:26:41;;;;;;;10.90;5.80;;;;;;;17.87;83.69;98981.97;105076;1271;76572;-23
2022/08/30 00:29:08;;;;;;;6.70;4.40;;;;;;;17.77;83.84;98982.25;105051;1271;74304;-23
2022/08/30 00:31:35;;;;;;;7.60;5.30;;;;;;;18.02;83.28;98982.09;104738;1272;62069;-22
2022/08/30 00:34:03;;;;;;;7.90;5.20;;;;;;;18.29;81.60;98978.48;104785;1272;62024;-23
2022/08/30 00:36:31;;;;;;;7.90;5.20;;;;;;;18.23;81.29;98976.55;104794;1272;74931;-22
2022/08/30 00:38:58;;;;;;;9.70;6.10;;;;;;;17.99;81.88;98981.75;105103;1272;76460;-23
2022/08/30 00:41:25;;;;;;;6.00;4.30;;;;;;;17.73;83.16;98989.75;105005;1271;74372;-23
2022/08/30 00:43:52;;;;;;;7.40;4.70;;;;;;;18.00;82.59;98993.92;105073;1271;62978;-22
2022/08/30 00:46:19;;;;;;;7.70;5.10;;;;;;;18.26;80.93;98996.80;105106;1271;63064;-23
2022/08/30 00:48:47;;;;;;;6.50;5.20;;;;;;;18.14;80.82;99000.89;105065;1272;76537;-23
2022/08/30 00:51:14;;;;;;;6.60;5.50;;;;;;;17.90;81.65;98995.16;104671;1273;77241;-23
2022/08/30 00:53:44;;;;;;;7.30;5.80;;;;;;;17.62;82.73;99002.35;104748;1272;75193;-22
2022/08/30 00:56:11;;;;;;;6.20;4.30;;;;;;;17.39;83.92;99002.59;104585;1274;62749;-23
2022/08/30 00:58:41;;;;;;;7.70;4.80;;;;;;;17.78;83.09;99001.80;105070;1271;61975;-23
2022/08/30 01:01:08;;;;;;;7.70;5.20;;;;;;;18.13;80.87;99000.73;104703;1272;75368;-23
2022/08/30 01:03:36;;;;;;;7.40;5.80;;;;;;;18.09;80.58;99002.94;104811;1271;77062;-23
2022/08/30 01:06:03;;;;;;;9.50;5.70;;;;;;;17.86;81.11;99001.06;104880;1271;74292;-23
2022/08/30 01:08:30;;;;;;;11.50;5.70;;;;;;;17.61;81.67;99002.13;105098;1271;62802;-23
2022/08/30 01:10:57;;;;;;;8.30;4.60;;;;;;;17.37;82.82;98999.11;104820;1271;61022;-23
2022/08/30 01:13:27;;;;;;;6.20;4.70;;;;;;;17.75;82.20;98999.88;104785;1272;76496;-22
2022/08/30 01:15:54;;;;;;;6.90;4.40;;;;;;;18.12;80.09;98998.02;104697;1271;75975;-23
2022/08/30 01:18:22;;;;;;;6.80;5.90;;;;;;;18.05;79.75;99000.00;104905;1271;74276;-23
2022/08/30 01:21:14;;;;;;;10.00;6.10;;;;;;;17.85;80.26;98999.66;104947;1271;62073;-23
2022/08/30 01:23:42;;;;;;;8.10;5.80;;;;;;;17.51;81.43;99001.13;104927;1271;62958;-22
2022/08/30 01:26:10;;;;;;;6.50;4.00;;;;;;;17.26;82.31;99001.58;104849;1271;76368;-22
2022/08/30 01:28:38;;;;;;;7.00;4.80;;;;;;;17.62;81.83;99000.57;105168;1271;76074;-22
2022/08/30 01:31:05;;;;;;;6.40;5.20;;;;;;;18.02;79.88;98997.38;104771;1271;74411;-23
2022/08/30 01:33:32;;;;;;;10.70;5.70;;;;;;;17.93;79.52;98993.96;104809;1271;61783;-23
2022/08/30 01:36:02;;;;;;;8.70;6.20;;;;;;;17.67;80.39;98994.92;104722;1271;62338;-23
2022/08/30 01:38:37;;;;;;;8.70;6.30;;;;;;;17.37;81.32;98993.51;104738;1271;76309;-22
2022/08/30 01:41:17;;;;;;;6.50;4.30;;;;;;;17.09;82.56;98990.84;104884;1272;76047;-23
2022/08/30 01:43:44;;;;;;;10.30;5.10;;;;;;;17.43;81.85;98986.88;105020;1272;75464;-23
2022/08/30 01:46:11;;;;;;;10.80;5.60;;;;;;;17.68;80.24;98986.67;104911;1271;63422;-22
2022/08/30 01:48:39;;;;;;;8.70;6.20;;;;;;;17.57;80.38;98984.67;105125;1274;62730;-22
2022/08/30 01:51:09;;;;;;;9.20;5.80;;;;;;;17.33;80.91;98988.71;105023;1271;76237;-23
2022/08/30 01:53:38;;;;;;;7.90;6.10;;;;;;;17.03;81.95;98994.25;104816;1271;77034;-22
2022/08/30 01:56:06;;;;;;;8.10;4.30;;;;;;;16.81;83.38;98995.08;105048;1271;75539;-22
2022/08/30 01:58:34;;;;;;;7.80;4.50;;;;;;;17.19;82.66;98994.75;105039;1271;63123;-23
2022/08/30 02:01:03;;;;;;;8.40;5.20;;;;;;;17.61;80.66;98995.23;104893;1271;62019;-22
2022/08/30 02:03:33;;;;;;;13.50;6.60;;;;;;;17.55;79.88;98996.86;104902;1271;76832;-23
2022/08/30 02:06:06;;;;;;;13.40;6.40;;;;;;;17.28;80.41;98993.41;105115;1271;75996;-22
2022/08/30 02:08:33;;;;;;;9.20;6.70;;;;;;;16.96;81.88;98996.17;105109;1272;75295;-23
2022/08/30 02:11:00;;;;;;;10.10;4.70;;;;;;;16.68;83.47;98997.92;105151;1272;64680;-23
2022/08/30 02:13:29;;;;;;;9.00;5.60;;;;;;;16.99;82.56;98993.41;105168;1271;63032;-23
2022/08/30 02:15:56;;;;;;;8.80;5.10;;;;;;;17.31;80.74;98990.51;105146;1272;76569;-22
2022/08/30 02:18:23;;;;;;;8.60;6.40;;;;;;;17.22;80.42;98988.46;105034;1272;74943;-23
2022/08/30 02:20:51;;;;;;;8.70;6.50;;;;;;;16.84;81.97;98988.00;105152;1271;75492;-23
2022/08/30 02:23:18;;;;;;;11.10;6.70;;;;;;;16.55;83.32;98987.64;105093;1271;61183;-23
2022/08/30 02:25:45;;;;;;;11.00;5.50;;;;;;;16.29;84.63;98985.85;105113;1271;62784;-22
2022/08/30 02:28:14;;;;;;;8.40;5.70;;;;;;;16.65;83.65;98989.90;105074;1271;76453;-23
2022/08/30 02:30:45;;;;;;;7.90;6.10;;;;;;;16.90;82.01;98986.80;104881;1272;76803;-22
2022/08/30 02:33:12;;;;;;;8.10;6.60;;;;;;;16.78;82.21;98991.27;104976;1271;75425;-22
2022/08/30 02:35:40;;;;;;;10.50;6.70;;;;;;;16.55;83.05;98994.25;105163;1272;61990;-23
2022/08/30 02:38:07;;;;;;;6.80;4.40;;;;;;;16.30;84.37;98985.72;105109;1272;61058;-23
2022/08/30 02:40:34;;;;;;;6.70;5.20;;;;;;;16.59;83.59;98988.91;105079;1271;75520;-22
2022/08/30 02:43:04;;;;;;;9.90;5.80;;;;;;;16.87;82.13;98986.15;104797;1273;77039;-26
2022/08/30 02:45:32;;;;;;;9.40;6.50;;;;;;;16.87;81.66;98990.86;104895;1271;75432;-26
2022/08/30 02:47:59;;;;;;;11.10;6.80;;;;;;;16.64;82.10;98992.96;105121;1271;62091;-25
2022/08/30 02:50:26;;;;;;;8.10;6.30;;;;;;;16.30;84.15;98996.79;105110;1271;61727;-25
2022/08/30 02:52:53;;;;;;;5.30;4.50;;;;;;;16.10;85.40;98998.05;104852;1272;75319;-24
2022/08/30 02:55:21;;;;;;;8.70;5.20;;;;;;;16.53;84.36;98999.27;104821;1272;74618;-24
2022/08/30 02:57:48;;;;;;;8.60;5.80;;;;;;;16.83;82.47;99004.95;104639;1274;74404;-24
2022/08/30 03:00:17;;;;;;;11.20;5.80;;;;;;;16.78;81.97;99006.33;104776;1272;62900;-25
2022/08/30 03:02:44;;;;;;;11.60;6.20;;;;;;;16.59;82.49;99011.54;104815;1271;63023;-24
2022/08/30 03:05:12;;;;;;;8.30;6.70;;;;;;;16.31;83.43;99015.37;104866;1271;76491;-25
2022/08/30 03:07:40;;;;;;;7.50;4.80;;;;;;;16.10;84.40;99014.49;104904;1271;75963;-24
2022/08/30 03:10:08;;;;;;;10.40;5.10;;;;;;;16.44;83.43;99015.11;104916;1271;75806;-25
2022/08/30 03:12:35;;;;;;;6.00;5.40;;;;;;;16.77;81.44;99015.20;105030;1271;62031;-25
2022/08/30 03:15:04;;;;;;;11.00;5.70;;;;;;;16.69;80.85;99013.66;104811;1272;62666;-25
2022/08/30 03:17:31;;;;;;;15.30;7.20;;;;;;;16.42;81.72;99012.69;104743;1271;75588;-25
2022/08/30 03:20:00;;;;;;;8.50;6.50;;;;;;;16.18;82.04;99015.59;104926;1274;77076;-25
2022/08/30 03:22:28;;;;;;;5.10;3.70;;;;;;;15.97;83.27;99015.15;104807;1271;75766;-25
2022/08/30 03:25:00;;;;;;;5.70;4.30;;;;;;;16.37;82.71;99017.25;104720;1271;61221;-24
2022/08/30 03:27:27;;;;;;;5.90;4.60;;;;;;;16.82;80.59;99018.94;104786;1271;63047;-24
2022/08/30 03:29:55;;;;;;;7.00;5.30;;;;;;;16.80;79.83;99019.14;104803;1271;76559;-25
2022/08/30 03:32:22;;;;;;;8.50;6.00;;;;;;;16.62;80.19;99019.85;104744;1272;76839;-24
2022/08/30 03:34:49;;;;;;;8.80;5.70;;;;;;;16.40;80.31;99021.32;104948;1271;74498;-25
2022/08/30 03:37:16;;;;;;;5.90;4.50;;;;;;;16.23;80.86;99021.63;104708;1272;63617;-24
2022/08/30 03:39:44;;;;;;;6.50;4.50;;;;;;;16.64;80.71;99028.87;104928;1272;62774;-24
2022/08/30 03:42:11;;;;;;;9.10;4.60;;;;;;;17.12;78.77;99032.04;104950;1271;75660;-25
2022/08/30 03:44:39;;;;;;;7.20;5.00;;;;;;;17.13;78.19;99027.36;104956;1274;72679;-25
2022/08/30 03:47:07;;;;;;;6.80;5.50;;;;;;;16.98;78.47;99028.64;104694;1274;75960;-25
2022/08/30 03:49:34;;;;;;;8.10;6.00;;;;;;;16.79;78.76;99027.69;105079;1274;62165;-24
2022/08/30 03:52:02;;;;;;;6.50;3.70;;;;;;;16.60;79.20;99029.96;104858;1273;61733;-25
2022/08/30 03:54:29;;;;;;;5.00;4.20;;;;;;;17.09;78.82;99030.97;104676;1274;74665;-23
2022/08/30 03:56:57;;;;;;;6.00;4.40;;;;;;;17.68;76.83;99033.66;103672;1274;1398590;-23
2022/08/30 03:59:24;;;;;;;6.20;4.40;;;;;;;17.79;75.59;99036.23;104701;1274;75092;-24
2022/08/30 04:01:50;;;;;;;7.30;5.40;;;;;;;17.70;75.29;99034.83;104997;1274;61704;-23
2022/08/30 04:04:18;;;;;;;6.80;5.40;;;;;;;17.53;75.65;99035.33;105046;1273;62037;-24
2022/08/30 04:06:47;;;;;;;14.80;5.50;;;;;;;17.36;76.20;99037.57;104867;1274;76748;-24
2022/08/30 04:09:15;;;;;;;5.80;3.70;;;;;;;17.25;76.48;99041.08;104725;1274;76145;-24
2022/08/30 04:11:42;;;;;;;5.30;3.90;;;;;;;17.80;75.88;99040.91;104718;1274;75353;-24
2022/08/30 04:14:09;;;;;;;6.70;4.20;;;;;;;18.41;73.53;99039.21;104790;1274;61542;-24
2022/08/30 04:16:36;;;;;;;5.60;4.50;;;;;;;18.58;72.43;99035.25;105006;1274;63269;-24
2022/08/30 04:19:04;;;;;;;11.00;5.10;;;;;;;18.51;72.18;99041.02;104731;1274;75871;-24
2022/08/30 04:21:31;;;;;;;6.70;4.90;;;;;;;18.32;72.58;99046.13;104922;1274;77046;-25
2022/08/30 04:24:01;;;;;;;9.40;5.20;;;;;;;18.08;73.28;99043.09;104731;1274;75391;-24
2022/08/30 04:26:28;;;;;;;6.30;5.10;;;;;;;17.92;73.98;99045.71;104978;1274;63278;-24
2022/08/30 04:28:55;;;;;;;6.50;3.60;;;;;;;17.80;74.40;99046.31;105051;1274;61102;-26
2022/08/30 04:31:22;;;;;;;5.60;4.20;;;;;;;18.14;73.51;99042.78;104882;1273;75715;-25
2022/08/30 04:33:50;;;;;;;7.10;4.40;;;;;;;18.52;71.57;99035.92;104976;1274;76985;-24
2022/08/30 04:36:17;;;;;;;7.60;4.80;;;;;;;18.50;71.53;99034.87;104667;1274;75309;-25
2022/08/30 04:38:44;;;;;;;24.00;5.60;;;;;;;18.27;72.03;99032.45;104858;1274;63425;-26
2022/08/30 04:41:15;;;;;;;7.10;5.00;;;;;;;18.15;72.57;99032.92;104786;1274;62086;-25
2022/08/30 04:43:43;;;;;;;10.60;4.60;;;;;;;17.94;73.36;99037.73;104662;1271;76512;-24
2022/08/30 04:46:12;;;;;;;10.60;5.40;;;;;;;17.87;73.59;99040.27;104826;1271;77381;-25
2022/08/30 04:48:39;;;;;;;5.00;3.40;;;;;;;17.86;73.77;99043.17;105116;1271;74238;-25
2022/08/30 04:51:08;;;;;;;4.80;3.80;;;;;;;18.34;72.22;99048.23;105045;1271;61484;-24
2022/08/30 04:53:36;;;;;;;6.20;4.40;;;;;;;18.72;70.68;99045.83;104819;1271;63262;-26
2022/08/30 04:56:07;;;;;;;8.90;4.80;;;;;;;18.76;70.37;99046.61;104737;1271;75754;-25
2022/08/30 04:58:34;;;;;;;6.10;4.60;;;;;;;18.63;70.66;99050.05;104575;1272;77220;-25
2022/08/30 05:01:02;;;;;;;9.80;4.50;;;;;;;18.44;71.24;99050.23;105081;1271;74085;-23
2022/08/30 05:03:30;;;;;;;6.30;4.60;;;;;;;18.29;71.75;99052.31;105169;1271;62875;-24
2022/08/30 05:05:57;;;;;;;5.90;4.40;;;;;;;18.24;72.20;99054.54;104938;1271;61689;-24
2022/08/30 05:08:24;;;;;;;4.70;3.40;;;;;;;18.24;72.13;99052.95;105070;1271;76311;-23
2022/08/30 05:10:52;;;;;;;4.50;2.90;;;;;;;18.36;72.20;99055.92;104852;1271;76462;-24
2022/08/30 05:13:20;;;;;;;5.00;3.20;;;;;;;18.98;69.54;99060.41;104789;1271;74472;-24
2022/08/30 05:16:02;;;;;;;7.10;3.50;;;;;;;19.36;67.12;99061.12;104717;1271;62079;-24
2022/08/30 05:18:29;;;;;;;5.90;3.60;;;;;;;19.43;66.64;99061.75;104731;1271;63045;-25
2022/08/30 05:21:24;;;;;;;6.80;3.80;;;;;;;19.26;66.84;99065.77;105057;1271;76595;-24
2022/08/30 05:24:33;;;;;;;6.10;3.60;;;;;;;19.04;66.47;99061.33;101839;1310;600789;-24
2022/08/30 05:27:00;;;;;;;5.80;3.30;;;;;;;18.89;67.85;99057.98;103979;1287;63136;-23
2022/08/30 05:29:29;;;;;;;3.80;3.30;;;;;;;18.89;67.62;99056.74;104335;1284;63671;-24
2022/08/30 05:31:57;;;;;;;6.10;3.40;;;;;;;18.86;68.10;99056.88;103930;1284;73836;-24
2022/08/30 05:34:25;;;;;;;6.90;3.70;;;;;;;18.73;66.97;99058.73;104128;1285;75875;-24
2022/08/30 05:36:52;;;;;;;5.30;3.30;;;;;;;18.66;68.05;99059.52;103860;1284;73611;-22
2022/08/30 05:39:19;;;;;;;67.40;6.10;;;;;;;18.63;68.17;99057.55;103293;1281;1447550;-22
2022/08/30 05:41:47;;;;;;;6.50;3.10;;;;;;;18.55;68.33;99056.02;104391;1281;63025;-23
2022/08/30 05:44:16;;;;;;;7.00;3.10;;;;;;;18.61;68.25;99054.48;104180;1281;74968;-23
2022/08/30 05:46:45;;;;;;;4.50;2.40;;;;;;;19.15;67.03;99051.94;104420;1281;75863;-23
2022/08/30 05:49:12;;;;;;;5.70;2.50;;;;;;;19.46;64.15;99052.23;104655;1274;75576;-24
2022/08/30 05:51:39;;;;;;;4.20;2.90;;;;;;;19.49;64.65;99051.90;104948;1274;62780;-25
2022/08/30 05:54:10;;;;;;;5.30;2.50;;;;;;;19.49;64.77;99051.66;104754;1274;62144;-24
2022/08/30 05:56:38;;;;;;;7.10;3.20;;;;;;;19.37;64.57;99056.14;104730;1275;75774;-24
2022/08/30 05:59:05;;;;;;;7.30;2.90;;;;;;;19.19;65.32;99057.85;104746;1274;77143;-24
2022/08/30 06:01:36;;;;;;;6.30;2.80;;;;;;;19.11;64.96;99057.89;105061;1274;75333;-24
2022/08/30 06:04:04;;;;;;;5.50;2.90;;;;;;;19.07;65.12;99057.43;104512;1274;62834;-22
2022/08/30 06:06:32;;;;;;;6.60;2.90;;;;;;;19.03;66.21;99059.05;104562;1274;62020;-23
2022/08/30 06:09:00;;;;;;;6.20;2.80;;;;;;;18.97;64.61;99059.00;104730;1275;73835;-23
2022/08/30 06:11:30;;;;;;;8.10;2.90;;;;;;;18.85;63.94;99056.45;104469;1275;76862;-23
2022/08/30 06:13:57;;;;;;;3.10;2.10;;;;;;;18.74;64.19;99055.92;104632;1275;73355;-23
2022/08/30 06:16:25;;;;;;;5.00;3.00;;;;;;;18.74;64.45;99056.64;104703;1275;61272;-23
2022/08/30 06:18:53;;;;;;;7.40;3.00;;;;;;;18.69;65.31;99067.67;104647;1274;63164;-24
2022/08/30 06:21:26;;;;;;;7.00;2.40;;;;;;;18.75;65.30;99067.33;104456;1277;75052;-24
2022/08/30 06:23:54;;;;;;;4.90;2.40;;;;;;;19.18;63.77;99069.36;104676;1277;76921;-24
2022/08/30 06:26:21;;;;;;;3.90;2.50;;;;;;;19.56;62.67;99066.50;104413;1276;74379;-23
2022/08/30 06:28:49;;;;;;;5.40;2.50;;;;;;;19.61;61.99;99072.26;104911;1271;62044;-24
2022/08/30 06:31:17;;;;;;;3.50;2.50;;;;;;;19.51;61.92;99073.23;104728;1273;63031;-24
2022/08/30 06:33:44;;;;;;;6.50;3.10;;;;;;;19.53;61.86;99074.30;104829;1271;74791;-25
2022/08/30 06:36:15;;;;;;;4.00;2.20;;;;;;;19.50;62.85;99076.87;105122;1271;77019;-25
2022/08/30 06:38:42;;;;;;;4.60;2.70;;;;;;;19.49;62.25;99076.20;104812;1271;75115;-25
2022/08/30 06:41:11;;;;;;;4.50;2.60;;;;;;;19.50;61.93;99078.49;104845;1271;61741;-25
2022/08/30 06:43:38;;;;;;;4.20;2.40;;;;;;;19.48;62.23;99082.24;104604;1274;61986;-25
2022/08/30 06:46:08;;;;;;;3.60;2.30;;;;;;;19.52;61.51;99085.17;105160;1271;74843;-24
2022/08/30 06:48:35;;;;;;;3.70;2.20;;;;;;;19.54;61.32;99084.23;104852;1271;76220;-25
2022/08/30 06:51:03;;;;;;;5.40;3.00;;;;;;;19.54;60.38;99083.01;105004;1271;74389;-24
2022/08/30 06:53:30;;;;;;;5.50;2.60;;;;;;;19.49;60.91;99085.99;105100;1271;61273;-24
2022/08/30 06:56:16;;;;;;;5.90;3.00;;;;;;;19.48;60.78;99082.73;105058;1271;62824;-24
2022/08/30 06:58:43;;;;;;;3.50;1.90;;;;;;;19.51;60.08;99081.23;104747;1274;74733;-24
2022/08/30 07:01:12;;;;;;;5.00;2.10;;;;;;;19.46;59.34;99083.55;105114;1271;76103;-24
2022/08/30 07:03:39;;;;;;;3.50;2.20;;;;;;;19.47;60.28;99083.73;104788;1271;75464;-23
2022/08/30 07:06:07;;;;;;;3.30;2.30;;;;;;;19.54;60.39;99087.80;105060;1271;61790;-24
2022/08/30 07:08:34;;;;;;;4.70;2.20;;;;;;;19.62;59.69;99092.02;105118;1271;62365;-24
2022/08/30 07:11:02;;;;;;;3.40;2.10;;;;;;;19.74;60.03;99089.91;104751;1271;75464;-24
2022/08/30 07:13:30;;;;;;;5.20;2.50;;;;;;;19.80;59.51;99092.28;104728;1272;76032;-24
2022/08/30 07:15:57;;;;;;;4.10;2.30;;;;;;;19.82;58.99;99084.31;104903;1271;75339;-23
2022/08/30 07:21:14;;;;;;;4.30;2.30;;;;;;;19.89;59.31;99096.58;105069;1271;63075;-23
2022/08/30 07:23:42;;;;;;;4.40;2.20;;;;;;;19.99;59.97;99094.57;105002;1271;75733;-23
2022/08/30 07:26:11;;;;;;;4.10;2.00;;;;;;;20.08;59.52;99094.16;104840;1271;77009;-24
2022/08/30 07:28:39;;;;;;;6.70;2.60;;;;;;;20.12;59.66;99096.35;104594;1271;74341;-25
2022/08/30 07:31:07;;;;;;;5.00;2.60;;;;;;;20.21;59.47;99090.88;104626;1271;61855;-23
2022/08/30 07:33:42;;;;;;;3.50;2.40;;;;;;;20.34;59.32;99096.91;104553;1271;62952;-23
2022/08/30 07:36:09;;;;;;;4.40;2.50;;;;;;;20.48;58.61;99101.56;104729;1272;75461;-24
2022/08/30 07:38:36;;;;;;;3.50;2.10;;;;;;;20.51;58.87;99098.58;104591;1271;77037;-23
2022/08/30 07:41:04;;;;;;;6.30;2.30;;;;;;;20.68;57.65;99097.89;104769;1271;75292;-24
2022/08/30 07:43:32;;;;;;;5.60;2.40;;;;;;;20.81;58.49;99105.84;105127;1271;61827;-24
2022/08/30 07:46:03;;;;;;;5.30;2.60;;;;;;;20.88;57.06;99101.06;105110;1272;63294;-24
2022/08/30 07:48:31;;;;;;;3.20;2.20;;;;;;;20.95;57.63;99106.73;105001;1272;75739;-23
2022/08/30 07:50:59;;;;;;;5.30;2.10;;;;;;;21.10;56.74;99106.85;105144;1271;75687;-24
2022/08/30 07:53:31;;;;;;;3.80;2.40;;;;;;;21.31;57.10;99110.52;104911;1271;75558;-24
2022/08/30 07:55:59;;;;;;;4.90;2.20;;;;;;;21.30;56.34;99112.88;104839;1274;62103;-24
2022/08/30 07:58:30;;;;;;;3.60;2.40;;;;;;;21.30;56.54;99109.98;104770;1271;61151;-24
2022/08/30 08:00:58;;;;;;;4.50;2.30;;;;;;;21.20;56.24;99113.02;104796;1272;73444;-24
2022/08/30 08:03:25;;;;;;;4.30;2.20;;;;;;;21.19;57.35;99114.60;104733;1271;75039;-24
2022/08/30 08:05:53;;;;;;;6.30;2.60;;;;;;;21.21;57.83;99114.09;104892;1271;74399;-24
2022/08/30 08:08:20;;;;;;;3.70;2.40;;;;;;;21.47;56.10;99114.55;105101;1271;61724;-24
2022/08/30 08:10:47;;;;;;;4.90;2.40;;;;;;;21.67;56.66;99118.83;104884;1271;62982;-24
2022/08/30 08:13:14;;;;;;;5.40;2.40;;;;;;;21.77;56.02;99123.38;104771;1271;75755;-24
2022/08/30 08:15:43;;;;;;;4.30;2.30;;;;;;;21.75;55.67;99124.99;105078;1271;75938;-24
2022/08/30 08:18:10;;;;;;;5.30;2.80;;;;;;;21.69;55.72;99113.98;105119;1272;75373;-24
2022/08/30 08:20:37;;;;;;;5.70;2.60;;;;;;;21.44;55.83;99115.10;105086;1271;61953;-24
2022/08/30 08:23:04;;;;;;;5.80;2.30;;;;;;;21.54;56.41;99116.05;105052;1274;63068;-24
2022/08/30 08:25:32;;;;;;;5.40;2.70;;;;;;;21.68;56.00;99118.80;105081;1271;74760;-24
2022/08/30 08:27:59;;;;;;;5.50;2.40;;;;;;;21.99;54.99;99119.85;105128;1271;77043;-25
2022/08/30 08:30:26;;;;;;;4.80;2.60;;;;;;;21.93;55.15;99115.17;104950;1271;75032;-24
2022/08/30 08:32:53;;;;;;;4.50;2.70;;;;;;;21.87;55.26;99122.69;105096;1271;63041;-24
2022/08/30 08:35:20;;;;;;;2.90;2.20;;;;;;;21.88;54.25;99118.94;105104;1274;61818;-24
2022/08/30 08:37:47;;;;;;;4.90;2.60;;;;;;;22.09;54.30;99115.38;105055;1272;75938;-24
2022/08/30 08:40:17;;;;;;;5.00;2.40;;;;;;;22.15;52.15;99114.59;105134;1271;76126;-25
2022/08/30 08:42:50;;;;;;;4.50;2.00;;;;;;;22.29;52.31;99108.72;104958;1271;72953;-24
2022/08/30 08:45:23;;;;;;;6.60;2.60;;;;;;;22.27;52.32;99112.34;104893;1272;61950;-24
2022/08/30 08:47:56;;;;;;;5.20;2.40;;;;;;;21.95;52.55;99120.18;104994;1271;61781;-24
2022/08/30 08:50:23;;;;;;;4.20;2.20;;;;;;;22.06;53.15;99113.34;104823;1271;74757;-24
2022/08/30 08:56:14;;;;;;;7.50;2.50;;;;;;;22.36;50.38;99101.84;104823;1274;75442;-24
2022/08/30 08:58:43;;;;;;;3.30;1.90;;;;;;;22.26;51.16;99100.02;104930;1271;62072;-24
2022/08/30 09:01:11;;;;;;;4.10;2.20;;;;;;;22.50;50.00;99096.17;105128;1271;62130;-24
2022/08/30 09:03:38;;;;;;;4.90;2.20;;;;;;;22.63;50.77;99100.55;105011;1271;75685;-24
2022/08/30 09:06:33;;;;;;;2.80;2.00;;;;;;;23.12;50.73;99102.52;105088;1271;75928;-24
2022/08/30 09:09:00;;;;;;;2.80;2.00;;;;;;;23.42;48.19;99097.92;104942;1272;74658;-25
2022/08/30 09:11:31;;;;;;;3.50;2.30;;;;;;;23.67;47.85;99098.10;105103;1271;62003;-24
2022/08/30 09:13:58;;;;;;;4.10;2.10;;;;;;;23.60;47.81;99095.30;104890;1271;62310;-25
2022/08/30 09:16:45;;;;;;;3.20;2.60;;;;;;;23.78;47.16;99103.38;105083;1271;75579;-24
2022/08/30 09:19:45;;;;;;;7.20;2.10;;;;;;;24.07;47.74;99094.35;105080;1272;77151;-24
2022/08/30 09:22:31;;;;;;;3.40;2.00;;;;;;;23.88;47.44;99097.36;104813;1271;74880;-25
2022/08/30 09:25:07;;;;;;;6.10;2.50;;;;;;;23.29;47.93;99095.92;104738;1272;61314;-24
2022/08/30 09:27:35;;;;;;;2.50;1.60;;;;;;;22.85;48.90;99104.70;104797;1271;61966;-23
2022/08/30 09:30:07;;;;;;;3.40;1.90;;;;;;;23.17;47.98;99103.70;104825;1272;75788;-24
2022/08/30 09:32:55;;;;;;;2.00;1.70;;;;;;;23.58;45.31;99099.52;104766;1271;74803;-24
2022/08/30 09:35:25;;;;;;;3.00;1.80;;;;;;;23.84;43.04;99095.24;105131;1274;75146;-24
2022/08/30 09:37:58;;;;;;;3.20;1.70;;;;;;;24.15;44.94;99093.66;105090;1271;63074;-22
2022/08/30 09:40:38;;;;;;;3.50;1.90;;;;;;;24.39;43.76;99093.52;104788;1271;61930;-24
2022/08/30 09:43:07;;;;;;;2.90;1.90;;;;;;;24.57;43.76;99093.23;104966;1271;74199;-23
2022/08/30 09:45:37;;;;;;;2.60;1.80;;;;;;;24.76;43.71;99094.63;104975;1271;77450;-23
2022/08/30 09:48:27;;;;;;;4.20;2.00;;;;;;;24.60;44.76;99089.04;104735;1274;75309;-23
2022/08/30 09:51:12;;;;;;;3.20;2.10;;;;;;;24.12;45.69;99087.39;105015;1271;63049;-23
2022/08/30 09:53:51;;;;;;;4.30;1.90;;;;;;;23.50;46.98;99083.44;104849;1271;61825;-23
2022/08/30 09:57:17;;;;;;;2.30;2.10;;;;;;;24.16;46.72;99089.10;104779;1271;75242;-23
2022/08/30 09:59:50;;;;;;;3.50;1.90;;;;;;;24.57;42.83;99086.89;104561;1280;77006;-23
2022/08/30 10:02:30;;;;;;;3.60;1.90;;;;;;;24.78;43.42;99079.39;104555;1280;74441;-23
2022/08/30 10:05:03;;;;;;;4.00;2.10;;;;;;;24.73;42.50;99078.11;104483;1280;62221;-23
2022/08/30 10:07:48;;;;;;;3.10;1.80;;;;;;;24.70;42.58;99080.27;104454;1280;62801;-24
2022/08/30 10:10:47;;;;;;;6.20;2.00;;;;;;;24.46;43.87;99076.80;104453;1280;75753;-24
2022/08/30 10:13:37;;;;;;;5.50;2.30;;;;;;;23.67;45.34;99074.50;104556;1278;77301;-24
2022/08/30 10:16:29;;;;;;;2.20;2.00;;;;;;;23.09;46.10;99081.08;104427;1278;75365;-24
2022/08/30 10:19:15;;;;;;;2.70;1.70;;;;;;;23.15;45.54;99075.60;104373;1280;62095;-23
2022/08/30 10:21:57;;;;;;;5.10;1.70;;;;;;;23.70;42.58;99077.14;104212;1280;61780;-24
2022/08/30 10:24:28;;;;;;;5.20;2.00;;;;;;;24.21;43.09;99073.57;104176;1280;76554;-24
2022/08/30 10:27:01;;;;;;;3.00;1.80;;;;;;;24.61;42.58;99074.55;104420;1280;77197;-24
2022/08/30 10:29:38;;;;;;;12.30;2.30;;;;;;;24.86;40.64;99066.49;104213;1280;74411;-25
2022/08/30 10:32:24;;;;;;;5.10;2.30;;;;;;;24.88;41.41;99069.39;104600;1274;61769;-25
2022/08/30 10:35:04;;;;;;;2.30;1.70;;;;;;;24.97;40.94;99069.92;104727;1274;62737;-24
2022/08/30 10:37:36;;;;;;;2.70;1.50;;;;;;;25.10;41.44;99068.03;104625;1271;76563;-24
2022/08/30 10:43:08;;;;;;;4.20;1.80;;;;;;;24.32;41.99;99070.40;105074;1274;74384;-25
2022/08/30 10:45:36;;;;;;;5.00;2.00;;;;;;;24.55;42.07;99068.60;104721;1274;61713;-25
2022/08/30 10:48:07;;;;;;;3.50;2.20;;;;;;;24.84;42.21;99060.73;104647;1274;61297;-24
2022/08/30 10:50:43;;;;;;;3.00;1.80;;;;;;;24.97;41.64;99063.94;104613;1274;75521;-25
2022/08/30 10:53:22;;;;;;;5.30;1.90;;;;;;;24.55;42.51;99061.76;104823;1274;76747;-24
2022/08/30 10:55:53;;;;;;;2.60;1.80;;;;;;;23.64;43.77;99063.27;104687;1274;74762;-25
2022/08/30 10:58:20;;;;;;;6.10;2.10;;;;;;;23.86;44.14;99058.81;105024;1274;63392;-25
2022/08/30 11:01:13;;;;;;;2.90;1.60;;;;;;;24.53;41.19;99047.98;104900;1274;62061;-24
2022/08/30 11:03:53;;;;;;;4.60;1.70;;;;;;;24.71;41.35;99046.42;104597;1274;74506;-24
2022/08/30 11:06:43;;;;;;;5.30;1.70;;;;;;;24.88;41.02;99053.73;104624;1274;77321;-24
2022/08/30 11:09:36;;;;;;;2.90;1.80;;;;;;;25.10;39.37;99053.28;104725;1274;75435;-24
2022/08/30 11:12:26;;;;;;;5.20;2.30;;;;;;;25.25;38.93;99053.30;104789;1271;61814;-23
2022/08/30 11:14:54;;;;;;;5.20;2.20;;;;;;;25.07;40.81;99055.89;104843;1274;61780;-24
2022/08/30 11:17:27;;;;;;;3.20;1.60;;;;;;;25.00;40.82;99053.68;104960;1274;76558;-24
2022/08/30 11:19:56;;;;;;;4.10;1.90;;;;;;;24.90;41.19;99041.71;104896;1274;75969;-25
2022/08/30 11:22:32;;;;;;;3.20;1.80;;;;;;;24.94;39.98;99044.76;104672;1274;75243;-24
2022/08/30 11:25:14;;;;;;;3.10;1.70;;;;;;;24.93;40.24;99040.74;104637;1271;62779;-24
2022/08/30 11:27:48;;;;;;;6.30;1.60;;;;;;;25.07;38.87;99042.70;104732;1271;62130;-25
2022/08/30 11:30:23;;;;;;;3.30;1.60;;;;;;;24.85;38.39;99038.23;104819;1271;75338;-24
2022/08/30 11:33:25;;;;;;;3.70;1.60;;;;;;;24.79;38.16;99036.73;104659;1271;75812;-24
2022/08/30 11:35:53;;;;;;;4.00;1.60;;;;;;;25.03;39.89;99037.58;104804;1271;75271;-24
2022/08/30 11:38:27;;;;;;;2.70;1.70;;;;;;;25.00;40.45;99040.64;104834;1271;63003;-25
2022/08/30 11:40:54;;;;;;;2.40;1.90;;;;;;;24.99;40.35;99033.45;104676;1271;61897;-24
2022/08/30 11:43:35;;;;;;;3.10;1.80;;;;;;;24.91;41.47;99037.25;104831;1271;76597;-23
2022/08/30 11:46:27;;;;;;;4.50;2.10;;;;;;;24.47;41.63;99038.52;104746;1271;77132;-24
2022/08/30 11:49:13;;;;;;;3.40;1.80;;;;;;;24.35;41.56;99039.67;104620;1271;73193;-24
2022/08/30 11:52:03;;;;;;;2.70;1.90;;;;;;;24.21;40.73;99040.92;104790;1274;62823;-24